createdAt,value
2022-10-17T00:00:39.227Z,101159.72
2022-10-17T00:03:05.974Z,101164.59
2022-10-17T00:05:32.547Z,101162.66
2022-10-17T00:07:58.986Z,101165.47
2022-10-17T00:10:25.478Z,101159.97
2022-10-17T00:12:52.149Z,101156.09
2022-10-17T00:15:20.538Z,101162.13
2022-10-17T00:17:47.164Z,101157.88
2022-10-17T00:20:14.201Z,101165.16
2022-10-17T00:22:40.735Z,101173.66
2022-10-17T00:25:07.596Z,101179.53
2022-10-17T00:27:39.042Z,101184.34
2022-10-17T00:30:07.573Z,101179.91
2022-10-17T00:32:34.050Z,101185.69
2022-10-17T00:35:00.513Z,101179.22
2022-10-17T00:37:27.021Z,101185.13
2022-10-17T00:39:54.268Z,101186.97
2022-10-17T00:42:21.005Z,101175.91
2022-10-17T00:44:47.619Z,101177.31
2022-10-17T00:47:19.234Z,101161.84
2022-10-17T00:49:47.323Z,101166.28
2022-10-17T00:52:21.983Z,101161.75
2022-10-17T00:54:54.427Z,101170.16
2022-10-17T00:57:21.031Z,101164.69
2022-10-17T00:59:52.684Z,101161.88
2022-10-17T01:02:21.424Z,101168.22
2022-10-17T01:04:51.052Z,101160.69
2022-10-17T01:07:17.979Z,101167.09
2022-10-17T01:09:46.174Z,101162.63
2022-10-17T01:12:21.549Z,101157.22
2022-10-17T01:15:08.692Z,101163.59
2022-10-17T01:18:01.529Z,101168.56
2022-10-17T01:21:38.950Z,101168.69
2022-10-17T01:24:26.395Z,101170.81
2022-10-17T01:27:23.084Z,101177.06
2022-10-17T01:30:32.305Z,101175.34
2022-10-17T01:33:08.132Z,101178.19
2022-10-17T01:35:45.862Z,101168.13
2022-10-17T01:38:23.387Z,101170.59
2022-10-17T01:41:19.756Z,101168.88
2022-10-17T01:43:52.887Z,101161.09
2022-10-17T01:46:28.897Z,101157.84
2022-10-17T01:48:59.489Z,101164.50
2022-10-17T01:51:38.827Z,101160.41
2022-10-17T01:54:20.526Z,101164.66
2022-10-17T01:56:51.685Z,101150.06
2022-10-17T01:59:22.643Z,101153.19
2022-10-17T02:01:52.473Z,101156.63
2022-10-17T02:04:19.608Z,101152.66
2022-10-17T02:06:46.114Z,101155.34
2022-10-17T02:09:27.144Z,101148.72
2022-10-17T02:12:15.558Z,101142.78
2022-10-17T02:15:17.195Z,101150.25
2022-10-17T02:18:15.804Z,101135.97
2022-10-17T02:21:02.914Z,101147.00
2022-10-17T02:24:01.201Z,101147.56
2022-10-17T02:26:37.888Z,101147.72
2022-10-17T02:29:15.281Z,101148.75
2022-10-17T02:31:48.671Z,101143.06
2022-10-17T02:34:33.754Z,101139.69
2022-10-17T02:37:04.916Z,101140.69
2022-10-17T02:39:33.439Z,101138.13
2022-10-17T02:42:04.836Z,101147.06
2022-10-17T02:44:33.683Z,101139.72
2022-10-17T02:47:18.077Z,101142.97
2022-10-17T02:49:50.706Z,101139.13
2022-10-17T02:52:34.238Z,101137.88
2022-10-17T02:55:20.408Z,101146.94
2022-10-17T02:57:54.520Z,101141.13
2022-10-17T03:00:24.717Z,101141.84
2022-10-17T03:02:53.001Z,101149.59
2022-10-17T03:05:23.291Z,101145.78
2022-10-17T03:07:49.933Z,101143.38
2022-10-17T03:10:17.432Z,101141.13
2022-10-17T03:12:44.767Z,101143.41
2022-10-17T03:15:13.027Z,101153.72
2022-10-17T03:17:40.908Z,101151.16
2022-10-17T03:20:08.957Z,101141.13
2022-10-17T03:22:36.072Z,101151.03
2022-10-17T03:25:04.245Z,101162.19
2022-10-17T03:27:31.188Z,101161.06
2022-10-17T03:29:57.958Z,101158.84
2022-10-17T03:32:24.632Z,101162.78
2022-10-17T03:34:51.088Z,101170.41
2022-10-17T03:37:17.589Z,101178.47
2022-10-17T03:39:44.673Z,101171.81
2022-10-17T03:42:11.264Z,101163.34
2022-10-17T03:44:37.812Z,101164.47
2022-10-17T03:47:04.437Z,101167.16
2022-10-17T03:49:30.891Z,101163.78
2022-10-17T03:51:57.375Z,101177.78
2022-10-17T03:54:24.651Z,101175.09
2022-10-17T03:56:51.207Z,101175.41
2022-10-17T03:59:19.564Z,101174.13
2022-10-17T04:01:55.128Z,101177.38
2022-10-17T04:04:22.041Z,101175.66
2022-10-17T04:06:48.458Z,101179.50
2022-10-17T04:09:14.995Z,101188.69
2022-10-17T04:11:52.858Z,101179.34
2022-10-17T04:14:20.660Z,101181.88
2022-10-17T04:16:47.214Z,101182.75
2022-10-17T04:19:18.436Z,101182.31
2022-10-17T04:21:46.877Z,101178.91
2022-10-17T04:24:14.428Z,101180.78
2022-10-17T04:27:03.802Z,101177.09
2022-10-17T04:29:33.109Z,101172.13
2022-10-17T04:32:25.981Z,101174.13
2022-10-17T04:35:22.008Z,101183.59
2022-10-17T04:37:54.673Z,101181.75
2022-10-17T04:40:21.515Z,101180.34
2022-10-17T04:42:50.226Z,101193.06
2022-10-17T04:45:20.272Z,101186.97
2022-10-17T04:47:49.310Z,101194.31
2022-10-17T04:50:15.773Z,101199.00
2022-10-17T04:52:42.385Z,101205.63
2022-10-17T04:55:09.120Z,101198.03
2022-10-17T04:57:37.419Z,101198.44
2022-10-17T05:00:14.721Z,101201.00
2022-10-17T05:03:03.406Z,101197.72
2022-10-17T05:05:30.455Z,101212.72
2022-10-17T05:07:57.492Z,101199.72
2022-10-17T05:10:27.776Z,101210.19
2022-10-17T05:12:54.628Z,101211.88
2022-10-17T05:15:23.880Z,101197.16
2022-10-17T05:17:57.652Z,101210.75
2022-10-17T05:20:26.465Z,101210.88
2022-10-17T05:22:53.564Z,101209.31
2022-10-17T05:25:20.625Z,101212.00
2022-10-17T05:27:47.115Z,101216.81
2022-10-17T05:30:14.905Z,101221.34
2022-10-17T05:32:43.622Z,101207.91
2022-10-17T05:35:10.390Z,101208.59
2022-10-17T05:37:38.534Z,101215.16
2022-10-17T05:40:06.155Z,101221.34
2022-10-17T05:42:33.160Z,101222.75
2022-10-17T05:45:00.140Z,101221.63
2022-10-17T05:47:27.164Z,101229.00
2022-10-17T05:50:21.491Z,101227.31
2022-10-17T05:53:01.767Z,101227.31
2022-10-17T05:55:28.449Z,101228.72
2022-10-17T05:57:54.976Z,101225.72
2022-10-17T06:00:22.922Z,101233.50
2022-10-17T06:02:55.949Z,101238.31
2022-10-17T06:05:23.733Z,101239.72
2022-10-17T06:07:52.443Z,101253.72
2022-10-17T06:10:19.677Z,101248.34
2022-10-17T06:12:46.284Z,101248.38
2022-10-17T06:15:13.884Z,101253.16
2022-10-17T06:17:43.383Z,101261.22
2022-10-17T06:20:10.273Z,101264.34
2022-10-17T06:22:37.087Z,101268.59
2022-10-17T06:25:08.302Z,101267.47
2022-10-17T06:27:34.877Z,101273.97
2022-10-17T06:30:01.559Z,101269.44
2022-10-17T06:32:30.098Z,101283.31
2022-10-17T06:34:56.821Z,101280.91
2022-10-17T06:37:23.503Z,101286.44
2022-10-17T06:39:49.961Z,101276.78
2022-10-17T06:42:20.480Z,101282.75
2022-10-17T06:45:07.563Z,101281.16
2022-10-17T06:48:03.155Z,101295.59
2022-10-17T06:51:02.151Z,101291.22
2022-10-17T06:53:30.054Z,101301.69
2022-10-17T06:56:10.454Z,101302.25
2022-10-17T06:58:57.265Z,101298.56
2022-10-17T07:01:34.416Z,101296.41
2022-10-17T07:04:03.302Z,101302.09
2022-10-17T07:06:32.816Z,101300.84
2022-10-17T07:09:06.815Z,101306.06
2022-10-17T07:11:35.748Z,101304.06
2022-10-17T07:14:02.910Z,101308.88
2022-10-17T07:16:29.448Z,101304.06
2022-10-17T07:19:11.705Z,101310.59
2022-10-17T07:21:39.527Z,101314.00
2022-10-17T07:24:07.502Z,101321.03
2022-10-17T07:26:34.300Z,101324.97
2022-10-17T07:29:01.867Z,101322.03
2022-10-17T07:31:35.819Z,101320.72
2022-10-17T07:34:02.686Z,101317.16
2022-10-17T07:36:29.918Z,101322.16
2022-10-17T07:38:57.886Z,101316.69
2022-10-17T07:41:25.489Z,101317.50
2022-10-17T07:43:52.000Z,101319.25
2022-10-17T07:46:22.176Z,101326.84
2022-10-17T07:48:49.427Z,101327.53
2022-10-17T07:51:20.112Z,101336.59
2022-10-17T07:53:48.781Z,101333.84
2022-10-17T07:56:15.832Z,101332.44
2022-10-17T07:58:42.470Z,101327.97
2022-10-17T08:01:15.400Z,101338.66
2022-10-17T08:03:44.486Z,101326.88
2022-10-17T08:06:11.473Z,101331.72
2022-10-17T08:08:38.080Z,101324.19
2022-10-17T08:11:09.899Z,101326.09
2022-10-17T08:13:37.246Z,101335.03
2022-10-17T08:16:07.414Z,101328.03
2022-10-17T08:18:34.688Z,101329.72
2022-10-17T08:21:02.776Z,101338.41
2022-10-17T08:23:29.270Z,101332.78
2022-10-17T08:25:59.710Z,101329.34
2022-10-17T08:28:26.216Z,101325.97
2022-10-17T08:30:52.664Z,101326.34
2022-10-17T08:33:19.086Z,101324.94
2022-10-17T08:35:45.501Z,101329.34
2022-10-17T08:38:13.360Z,101334.34
2022-10-17T08:40:42.725Z,101328.41
2022-10-17T08:43:42.029Z,101325.84
2022-10-17T08:46:09.375Z,101328.19
2022-10-17T08:48:46.282Z,101322.78
2022-10-17T08:51:24.476Z,101325.22
2022-10-17T08:54:09.355Z,101332.66
2022-10-17T08:56:48.855Z,101334.03
2022-10-17T08:59:30.051Z,101329.72
2022-10-17T09:06:20.653Z,101323.78
2022-10-17T09:09:00.076Z,101326.59
2022-10-17T09:11:56.596Z,101322.38
2022-10-17T09:14:41.051Z,101317.75
2022-10-17T09:17:41.674Z,101317.34
2022-10-17T09:20:15.134Z,101312.47
2022-10-17T09:22:48.966Z,101319.69
2022-10-17T09:25:18.560Z,101318.88
2022-10-17T09:27:49.955Z,101319.63
2022-10-17T09:30:43.630Z,101321.03
2022-10-17T09:33:34.746Z,101317.44
2022-10-17T09:36:05.818Z,101320.47
2022-10-17T09:38:45.441Z,101317.50
2022-10-17T09:44:16.353Z,101315.22
2022-10-17T09:46:53.017Z,101312.94
2022-10-17T09:49:29.221Z,101310.75
2022-10-17T09:51:55.735Z,101306.06
2022-10-17T09:54:26.711Z,101305.03
2022-10-17T09:56:59.785Z,101316.34
2022-10-17T09:59:38.765Z,101317.03
2022-10-17T10:02:24.609Z,101319.91
2022-10-17T10:30:48.164Z,101314.75
2022-10-17T10:33:14.646Z,101308.81
2022-10-17T10:35:41.117Z,101312.56
2022-10-17T10:38:16.588Z,101307.31
2022-10-17T10:41:01.303Z,101312.44
2022-10-17T10:43:42.088Z,101318.59
2022-10-17T10:46:25.665Z,101313.84
2022-10-17T10:48:52.025Z,101312.81
2022-10-17T10:51:24.482Z,101318.31
2022-10-17T10:54:01.489Z,101311.47
2022-10-17T10:56:37.224Z,101313.56
2022-10-17T10:59:28.309Z,101313.47
2022-10-17T11:02:02.283Z,101318.00
2022-10-17T11:04:44.693Z,101303.56
2022-10-17T11:07:28.902Z,101302.69
2022-10-17T11:10:08.780Z,101292.91
2022-10-17T11:13:13.632Z,101295.88
2022-10-17T11:15:46.143Z,101292.53
2022-10-17T11:18:50.384Z,101288.97
2022-10-17T11:21:29.003Z,101292.63
2022-10-17T11:24:15.040Z,101286.31
2022-10-17T11:26:56.648Z,101286.50
2022-10-17T11:29:29.108Z,101279.34
2022-10-17T11:31:59.808Z,101282.84
2022-10-17T11:34:31.119Z,101277.16
2022-10-17T11:37:09.426Z,101274.03
2022-10-17T11:39:49.413Z,101274.88
2022-10-17T11:42:21.743Z,101276.97
2022-10-17T11:44:52.389Z,101276.22
2022-10-17T11:47:58.946Z,101270.84
2022-10-17T11:53:31.248Z,101259.44
2022-10-17T11:56:00.280Z,101259.03
2022-10-17T11:58:41.940Z,101251.69
2022-10-17T12:01:44.432Z,101242.75
2022-10-17T12:04:23.007Z,101239.72
2022-10-17T12:07:10.993Z,101223.91
2022-10-17T12:09:54.342Z,101223.13
2022-10-17T12:12:27.374Z,101225.84
2022-10-17T12:14:55.591Z,101212.63
2022-10-17T12:17:30.634Z,101219.88
2022-10-17T12:20:37.005Z,101215.50
2022-10-17T12:23:12.869Z,101216.44
2022-10-17T12:25:56.942Z,101208.78
2022-10-17T12:28:39.263Z,101210.19
2022-10-17T12:31:33.945Z,101194.44
2022-10-17T12:34:03.044Z,101188.59
2022-10-17T12:36:29.586Z,101186.75
2022-10-17T12:39:02.222Z,101193.06
2022-10-17T12:41:44.458Z,101190.25
2022-10-17T12:44:17.231Z,101185.88
2022-10-17T12:46:49.083Z,101186.78
2022-10-17T12:49:38.717Z,101182.75
2022-10-17T12:52:11.191Z,101182.34
2022-10-17T12:54:47.615Z,101180.88
2022-10-17T12:57:32.038Z,101174.41
2022-10-17T13:00:02.929Z,101170.66
2022-10-17T13:02:31.408Z,101175.91
2022-10-17T13:05:08.167Z,101176.31
2022-10-17T13:07:36.539Z,101169.44
2022-10-17T13:10:05.243Z,101174.13
2022-10-17T13:12:40.297Z,101168.22
2022-10-17T13:15:08.557Z,101166.66
2022-10-17T13:17:35.175Z,101170.44
2022-10-17T13:20:02.299Z,101165.09
2022-10-17T13:22:32.310Z,101161.75
2022-10-17T13:25:20.054Z,101167.06
2022-10-17T13:28:32.381Z,101171.41
2022-10-17T13:31:03.351Z,101176.44
2022-10-17T13:33:55.685Z,101168.94
2022-10-17T13:36:22.237Z,101168.88
2022-10-17T13:38:48.709Z,101176.63
2022-10-17T13:41:35.341Z,101176.25
2022-10-17T13:44:09.211Z,101175.81
2022-10-17T13:46:38.403Z,101171.25
2022-10-17T13:49:24.450Z,101171.81
2022-10-17T13:51:54.323Z,101174.31
2022-10-17T13:54:33.352Z,101183.31
2022-10-17T13:57:01.737Z,101174.16
2022-10-17T13:59:40.077Z,101175.13
2022-10-17T14:02:17.023Z,101177.28
2022-10-17T14:05:15.638Z,101176.44
2022-10-17T14:07:58.130Z,101180.88
2022-10-17T14:10:26.897Z,101180.13
2022-10-17T14:12:54.186Z,101180.25
2022-10-17T14:15:28.540Z,101180.97
2022-10-17T14:18:05.470Z,101177.25
2022-10-17T14:21:08.265Z,101183.31
2022-10-17T14:23:38.531Z,101180.56
2022-10-17T14:26:14.313Z,101177.97
2022-10-17T14:28:43.362Z,101171.00
2022-10-17T14:31:15.639Z,101171.50
2022-10-17T14:33:51.015Z,101185.72
2022-10-17T14:36:18.463Z,101172.88
2022-10-17T14:38:48.279Z,101172.13
2022-10-17T14:41:41.895Z,101175.50
2022-10-17T14:44:14.577Z,101186.69
2022-10-17T14:46:49.574Z,101192.72
2022-10-17T14:49:24.641Z,101189.69
2022-10-17T14:52:24.069Z,101183.97
2022-10-17T14:54:50.645Z,101189.97
2022-10-17T14:57:29.389Z,101182.44
2022-10-17T14:59:57.043Z,101175.84
2022-10-17T15:02:25.746Z,101171.53
2022-10-17T15:04:52.964Z,101186.03
2022-10-17T15:07:21.145Z,101188.66
2022-10-17T15:09:48.979Z,101186.28
2022-10-17T15:12:23.172Z,101181.50
2022-10-17T15:14:50.595Z,101195.94
2022-10-17T15:17:20.822Z,101201.22
2022-10-17T15:19:48.247Z,101207.75
2022-10-17T15:22:18.080Z,101201.88
2022-10-17T15:24:47.913Z,101204.81
2022-10-17T15:27:19.963Z,101203.22
2022-10-17T15:29:47.178Z,101202.69
2022-10-17T15:32:14.033Z,101205.66
2022-10-17T15:34:40.899Z,101215.78
2022-10-17T15:37:16.594Z,101214.09
2022-10-17T15:39:43.071Z,101212.25
2022-10-17T15:42:11.875Z,101209.72
2022-10-17T15:44:38.417Z,101214.50
2022-10-17T15:47:05.627Z,101220.03
2022-10-17T15:49:33.891Z,101225.28
2022-10-17T15:52:00.307Z,101232.97
2022-10-17T15:54:26.726Z,101237.06
2022-10-17T15:56:55.097Z,101253.38
2022-10-17T15:59:26.205Z,101257.53
2022-10-17T16:01:52.785Z,101252.75
2022-10-17T16:04:19.286Z,101255.09
2022-10-17T16:06:45.763Z,101257.16
2022-10-17T16:09:12.455Z,101254.88
2022-10-17T16:11:43.536Z,101258.19
2022-10-17T16:14:15.913Z,101271.69
2022-10-17T16:16:42.908Z,101269.63
2022-10-17T16:19:09.430Z,101279.28
2022-10-17T16:21:39.090Z,101288.41
2022-10-17T16:24:06.219Z,101282.00
2022-10-17T16:26:32.957Z,101287.44
2022-10-17T16:29:02.756Z,101289.22
2022-10-17T16:31:33.110Z,101291.03
2022-10-17T16:34:01.335Z,101293.81
2022-10-17T16:36:28.000Z,101291.13
2022-10-17T16:38:54.513Z,101291.09
2022-10-17T16:41:26.685Z,101296.72
2022-10-17T16:43:55.473Z,101297.94
2022-10-17T16:46:23.024Z,101300.38
2022-10-17T16:48:49.720Z,101286.38
2022-10-17T16:51:18.384Z,101295.00
2022-10-17T16:53:46.250Z,101290.78
2022-10-17T16:56:15.307Z,101302.41
2022-10-17T16:58:42.562Z,101304.63
2022-10-17T17:01:15.615Z,101307.88
2022-10-17T17:03:44.339Z,101311.81
2022-10-17T17:06:19.088Z,101315.78
2022-10-17T17:08:45.635Z,101325.75
2022-10-17T17:11:14.428Z,101327.69
2022-10-17T17:13:41.341Z,101317.59
2022-10-17T17:16:16.040Z,101325.97
2022-10-17T17:18:43.424Z,101325.34
2022-10-17T17:21:10.677Z,101323.94
2022-10-17T17:23:40.668Z,101328.34
2022-10-17T17:26:18.739Z,101333.47
2022-10-17T17:28:45.938Z,101330.94
2022-10-17T17:31:18.342Z,101329.59
2022-10-17T17:33:46.685Z,101330.50
2022-10-17T17:36:17.129Z,101330.91
2022-10-17T17:38:44.008Z,101326.97
2022-10-17T17:41:15.229Z,101328.50
2022-10-17T17:43:43.060Z,101320.72
2022-10-17T17:46:09.846Z,101320.94
2022-10-17T17:48:40.928Z,101311.47
2022-10-17T17:51:10.242Z,101316.56
2022-10-17T17:53:37.355Z,101333.63
2022-10-17T17:56:06.564Z,101338.50
2022-10-17T17:58:34.106Z,101330.41
2022-10-17T18:01:01.887Z,101331.41
2022-10-17T18:03:28.462Z,101333.47
2022-10-17T18:05:54.911Z,101326.50
2022-10-17T18:08:21.358Z,101333.13
2022-10-17T18:10:54.467Z,101318.59
2022-10-17T18:13:20.996Z,101320.94
2022-10-17T18:15:48.819Z,101327.00
2022-10-17T18:18:15.306Z,101324.66
2022-10-17T18:20:42.809Z,101323.66
2022-10-17T18:23:10.411Z,101327.72
2022-10-17T18:25:37.207Z,101321.25
2022-10-17T18:28:04.155Z,101323.13
2022-10-17T18:30:33.741Z,101319.63
2022-10-17T18:33:01.092Z,101329.28
2022-10-17T18:35:27.525Z,101333.72
2022-10-17T18:37:56.693Z,101325.31
2022-10-17T18:40:23.142Z,101326.50
2022-10-17T18:42:49.575Z,101325.00
2022-10-17T18:45:17.332Z,101318.72
2022-10-17T18:47:47.063Z,101320.25
2022-10-17T18:50:14.430Z,101328.59
2022-10-17T18:52:40.909Z,101324.28
2022-10-17T18:55:07.830Z,101323.78
2022-10-17T18:57:34.299Z,101319.88
2022-10-17T19:00:00.806Z,101324.59
2022-10-17T19:02:27.222Z,101321.50
2022-10-17T19:04:53.657Z,101328.59
2022-10-17T19:07:20.251Z,101333.13
2022-10-17T19:09:48.583Z,101330.88
2022-10-17T19:12:15.741Z,101327.88
2022-10-17T19:14:42.195Z,101331.31
2022-10-17T19:17:08.758Z,101328.66
2022-10-17T19:19:35.787Z,101332.91
2022-10-17T19:22:03.410Z,101347.31
2022-10-17T19:24:30.012Z,101343.13
2022-10-17T19:26:58.300Z,101344.56
2022-10-17T19:29:27.936Z,101339.31
2022-10-17T19:34:27.614Z,101348.50
2022-10-17T19:36:55.672Z,101348.75
2022-10-17T19:39:23.824Z,101353.88
2022-10-17T19:41:50.413Z,101361.50
2022-10-17T19:44:17.305Z,101361.66
2022-10-17T19:46:48.906Z,101357.25
2022-10-17T19:49:16.238Z,101359.78
2022-10-17T19:51:42.823Z,101356.88
2022-10-17T19:54:09.695Z,101361.94
2022-10-17T19:56:37.995Z,101362.41
2022-10-17T19:59:06.260Z,101368.31
2022-10-17T20:01:35.799Z,101367.28
2022-10-17T20:04:02.393Z,101369.00
2022-10-17T20:06:28.911Z,101375.09
2022-10-17T20:08:55.492Z,101373.19
2022-10-17T20:11:25.095Z,101376.50
2022-10-17T20:13:52.556Z,101381.63
2022-10-17T20:16:22.612Z,101389.09
2022-10-17T20:18:55.222Z,101379.94
2022-10-17T20:21:27.199Z,101388.19
2022-10-17T20:23:54.964Z,101391.63
2022-10-17T20:26:37.535Z,101381.66
2022-10-17T20:29:08.555Z,101385.97
2022-10-17T20:31:35.216Z,101388.13
2022-10-17T20:34:01.682Z,101396.50
2022-10-17T20:36:28.113Z,101393.16
2022-10-17T20:38:59.019Z,101392.22
2022-10-17T20:41:26.492Z,101391.09
2022-10-17T20:43:54.570Z,101390.31
2022-10-17T20:46:35.937Z,101393.00
2022-10-17T20:49:05.058Z,101392.78
2022-10-17T20:51:31.546Z,101401.03
2022-10-17T20:53:58.116Z,101401.59
2022-10-17T20:56:27.185Z,101414.53
2022-10-17T20:58:55.409Z,101402.34
2022-10-17T21:01:22.546Z,101398.66
2022-10-17T21:03:49.282Z,101388.41
2022-10-17T21:06:17.444Z,101381.94
2022-10-17T21:08:44.983Z,101389.47
2022-10-17T21:11:20.012Z,101399.03
2022-10-17T21:13:47.925Z,101400.66
2022-10-17T21:16:17.236Z,101393.25
2022-10-17T21:18:44.466Z,101405.72
2022-10-17T21:21:18.106Z,101396.25
2022-10-17T21:23:46.795Z,101399.63
2022-10-17T21:26:14.012Z,101396.63
2022-10-17T21:28:41.323Z,101404.47
2022-10-17T21:31:25.869Z,101391.72
2022-10-17T21:34:00.366Z,101393.00
2022-10-17T21:36:28.110Z,101387.22
2022-10-17T21:38:56.960Z,101398.22
2022-10-17T21:41:26.182Z,101390.00
2022-10-17T21:43:54.764Z,101389.16
2022-10-17T21:46:21.906Z,101400.28
2022-10-17T21:48:49.439Z,101402.00
2022-10-17T21:51:18.463Z,101399.38
2022-10-17T21:53:45.480Z,101403.00
2022-10-17T21:56:15.312Z,101407.56
2022-10-17T21:58:42.675Z,101408.09
2022-10-17T22:01:29.883Z,101418.69
2022-10-17T22:03:59.319Z,101414.38
2022-10-17T22:06:44.764Z,101407.47
2022-10-17T22:09:23.199Z,101407.56
2022-10-17T22:11:54.294Z,101407.31
2022-10-17T22:14:22.288Z,101409.06
2022-10-17T22:16:49.385Z,101408.13
2022-10-17T22:19:20.263Z,101405.66
2022-10-17T22:21:46.897Z,101417.22
2022-10-17T22:24:15.296Z,101417.38
2022-10-17T22:26:42.871Z,101415.44
2022-10-17T22:29:09.629Z,101418.31
2022-10-17T22:31:37.540Z,101415.50
2022-10-17T22:34:05.452Z,101418.44
2022-10-17T22:36:32.926Z,101424.19
2022-10-17T22:38:59.350Z,101424.38
2022-10-17T22:41:25.845Z,101427.31
2022-10-17T22:43:52.264Z,101426.59
2022-10-17T22:46:18.888Z,101430.06
2022-10-17T22:48:45.672Z,101428.28
2022-10-17T22:51:12.267Z,101427.41
2022-10-17T22:53:39.358Z,101421.31
2022-10-17T22:56:09.595Z,101426.38
2022-10-17T22:58:36.418Z,101423.91
2022-10-17T23:01:03.792Z,101422.19
2022-10-17T23:03:31.391Z,101419.56
2022-10-17T23:05:58.240Z,101417.31
2022-10-17T23:08:24.736Z,101419.47
2022-10-17T23:10:51.208Z,101419.59
2022-10-17T23:13:18.792Z,101416.16
2022-10-17T23:15:45.662Z,101418.03
2022-10-17T23:18:12.140Z,101412.53
2022-10-17T23:20:38.585Z,101416.91
2022-10-17T23:23:05.118Z,101415.31
2022-10-17T23:25:34.228Z,101411.38
2022-10-17T23:28:01.644Z,101408.44
2022-10-17T23:30:28.518Z,101408.94
2022-10-17T23:32:54.938Z,101408.06
2022-10-17T23:35:21.361Z,101410.19
2022-10-17T23:37:47.779Z,101408.94
2022-10-17T23:40:14.387Z,101410.53
2022-10-17T23:42:40.834Z,101413.19
2022-10-17T23:45:07.984Z,101421.06
2022-10-17T23:47:34.462Z,101409.31
2022-10-17T23:50:01.085Z,101407.75
2022-10-17T23:52:27.525Z,101410.91
2022-10-17T23:54:53.993Z,101414.97
2022-10-17T23:57:20.538Z,101414.72
2022-10-17T23:59:47.149Z,101417.66
